• Join FlightAware (Why Join?)
  • Login
  • US Flag 
05:17PM EDT


 

Airport Tracker/Info


-or-


 

Live Flight TrackerFlight Track Log ✈ N2299W ✈ 05-Nov-2013 ✈ KVDF - KVQQ

Flight Track Log - Related Links

Times and Time Zones

All times are in EST time to prevent confusion due to time zone crossing. See the N2299W flight status page for this flight to view local times or setup timezone preferences in your user account.

Time Position Orientation Groundspeed Altitude Reporting Facility
EST Latitude Longitude Course Direction KTS MPH feet Rate Location/Type
01:43PM 28.0167 -82.3333 360° North 84 97 100  Level Tampa TRACON
01:44PM 28.0333 -82.3333 360° North 74 85 800 540 Climbing Tampa TRACON
01:45PM 28.0500 -82.3167 41° Northeast 69 79 1,400 480 Climbing Tampa TRACON
01:46PM 28.0667 -82.3000 41° Northeast 76 87 1,900 480 Climbing Tampa TRACON
01:47PM 28.1000 -82.3000 360° North 73 84 2,400 420 Climbing Tampa TRACON
01:48PM 28.1167 -82.3000 360° North 87 100 2,800 360 Climbing Tampa TRACON
01:49PM 28.1333 -82.3000 360° North 80 92 3,200 300 Climbing Tampa TRACON
01:50PM 28.1667 -82.3000 360° North 81 93 3,500 360 Climbing Tampa TRACON
01:51PM 28.1833 -82.3000 360° North 71 82 4,000 300 Climbing Tampa TRACON
01:52PM 28.2000 -82.2833 41° Northeast 90 104 4,200  Climbing Tampa TRACON
01:53PM 28.2333 -82.2833 360° North 112 129 4,000 -120 Descending Tampa TRACON
01:54PM 28.2667 -82.2833 360° North 110 127 4,000 -60 Level Tampa TRACON
01:55PM 28.3000 -82.2833 360° North 108 124 3,900  Descending Tampa TRACON
01:56PM 28.3167 -82.2833 360° North 105 121 4,000 60 Climbing Tampa TRACON
01:57PM 28.3500 -82.2833 360° North 101 116 4,100  Climbing Tampa TRACON
01:58PM 28.3833 -82.2833 360° North 101 116 4,000  Descending Tampa TRACON
01:59PM 28.4000 -82.2833 360° North 103 119 4,100  Climbing Tampa TRACON
02:00PM 28.4333 -82.2833 360° North 101 116 4,100 -60 Level Tampa TRACON
02:01PM 28.4667 -82.2667 24° Northeast 101 116 4,000  Descending Tampa TRACON
02:02PM 28.4833 -82.2667 360° North 106 122 4,100  Climbing Tampa TRACON
02:03PM 28.5167 -82.2667 360° North 105 121 4,000  Descending Tampa TRACON
02:06PM 28.5803 -82.2708 357° North 105 121 4,200  Climbing Jacksonville Center
02:07PM 28.6117 -82.2683 North 105 121 4,100 -120 Descending Jacksonville Center
02:08PM 28.6408 -82.2586 16° North 99 114 4,000  Descending Jacksonville Center
02:09PM 28.6681 -82.2561 North 100 115 4,100  Climbing Jacksonville Center
02:09PM 28.6931 -82.2678 338° Northwest 107 123 4,000 -60 Descending Jacksonville Center
02:10PM 28.7244 -82.2653 North 103 119 4,000  Level Jacksonville Center
02:11PM 28.7514 -82.2675 356° North 101 116 4,000  Level Jacksonville Center
02:12PM 28.7786 -82.2672 North 103 119 4,000  Level Jacksonville Center
02:14PM 28.8161 -82.2669 360° North 105 121 4,100 60 Climbing Jacksonville Center
02:15PM 28.8456 -82.2667 360° North 104 120 4,200  Climbing Jacksonville Center
02:16PM 28.8706 -82.2667 360° North 101 116 4,100 -120 Descending Jacksonville Center
02:17PM 28.8997 -82.2642 North 104 120 4,000  Descending Jacksonville Center
02:18PM 28.9269 -82.2664 356° North 109 125 4,100  Climbing Jacksonville Center
02:19PM 28.9581 -82.2686 356° North 110 127 4,100  Level Jacksonville Center
02:20PM 28.9917 -82.2706 357° North 107 123 4,100  Level Jacksonville Center
02:21PM 29.0186 -82.2681 North 106 122 4,100  Level Jacksonville Center
02:22PM 29.0519 -82.2678 360° North 105 121 4,100  Level Jacksonville Center
02:23PM 29.0772 -82.2653 North 105 121 4,100  Level Jacksonville Center
02:24PM 29.1083 -82.2700 352° North 107 123 4,100  Level Jacksonville Center
02:25PM 29.1356 -82.2697 North 105 121 4,100  Level Jacksonville Center
02:26PM 29.1647 -82.2672 North 99 114 4,200  Climbing Jacksonville Center
02:27PM 29.1919 -82.2694 356° North 105 121 4,100 -120 Descending Jacksonville Center
02:28PM 29.2275 -82.2667 North 109 125 4,000 -60 Descending Jacksonville Center
02:29PM 29.2525 -82.2689 356° North 110 127 4,000  Level Jacksonville Center
02:30PM 29.2858 -82.2711 357° North 106 122 4,000  Level Jacksonville Center
02:31PM 29.3131 -82.2758 351° North 100 115 4,100  Climbing Jacksonville Center
02:32PM 29.3422 -82.2731 North 102 117 4,000  Descending Jacksonville Center
02:33PM 29.3694 -82.2706 North 98 113 4,200  Climbing Jacksonville Center
02:34PM 29.3986 -82.2706 360° North 108 124 4,000 -60 Descending Jacksonville Center
02:35PM 29.4300 -82.2703 360° North 102 117 4,100  Climbing Jacksonville Center
02:36PM 29.4611 -82.2700 360° North 104 120 4,000 -60 Descending Jacksonville Center
02:37PM 29.4925 -82.2722 356° North 110 127 4,000  Level Jacksonville Center
02:38PM 29.5239 -82.2744 356° North 108 124 4,100  Climbing Jacksonville Center
02:39PM 29.5553 -82.2742 360° North 109 125 4,100  Level Jacksonville Center
02:40PM 29.5864 -82.2739 360° North 112 129 4,100 -60 Level Jacksonville Center
02:41PM 29.6158 -82.2739 360° North 111 128 4,000 -60 Descending Jacksonville Center
02:42PM 29.6469 -82.2761 356° North 109 125 4,000  Level Jacksonville Center
02:43PM 29.6783 -82.2758 360° North 113 130 4,000  Level Jacksonville Center
02:44PM 29.7097 -82.2756 360° North 109 125 4,000  Level Jacksonville Center
02:45PM 29.7389 -82.2683 12° North 106 122 4,100  Climbing Jacksonville Center
02:46PM 29.7681 -82.2608 13° North 104 120 4,000  Descending Jacksonville Center
02:47PM 29.7950 -82.2464 25° Northeast 100 115 4,100  Climbing Jacksonville Center
02:48PM 29.8222 -82.2389 13° North 105 121 4,000 -60 Descending Jacksonville Center
02:49PM 29.8494 -82.2317 13° North 104 120 4,000 -60 Level Jacksonville Center
02:50PM 29.8786 -82.2219 16° North 98 113 3,900  Descending Jacksonville Center
02:51PM 29.9036 -82.2144 15° North 97 112 4,000  Climbing Jacksonville Center
02:52PM 29.9264 -82.2000 29° Northeast 88 101 4,000  Level Jacksonville Center
02:53PM 29.9492 -82.1856 29° Northeast 94 108 4,000 -60 Level Jacksonville Center
02:54PM 29.9742 -82.1661 34° Northeast 92 106 3,900 -300 Descending Jacksonville Center
02:55PM 29.9844 -82.1467 59° Northeast 77 89 3,400 -600 Descending Jacksonville Center
02:56PM 30.0011 -82.1275 45° Northeast 82 94 2,800 -600 Descending Jacksonville Center
02:57PM 30.0178 -82.1106 41° Northeast 78 90 2,300 -360 Descending Jacksonville Center
02:58PM 30.0322 -82.0936 45° Northeast 72 83 2,200 -180 Descending Jacksonville Center
02:59PM 30.0383 -82.0697 74° East 67 77 2,000 -120 Descending Jacksonville Center
03:00PM 30.0467 -82.0528 60° Northeast 60 69 2,000  Level Jacksonville Center
03:01PM 30.0444 -82.0336 98° East 66 76 2,100  Climbing Jacksonville Center
03:02PM 30.0464 -82.0144 83° East 59 68 2,100 -60 Level Jacksonville Center
03:03PM 30.0544 -81.9928 67° East 71 82 2,000  Descending Jacksonville Center
03:04PM 30.0544 -81.9686 90° East 78 90 2,200 60 Climbing Jacksonville Center
03:05PM 30.0542 -81.9422 91° East 81 93 2,200 -120 Level Jacksonville Center
03:07PM 30.0539 -81.9111 91° East 84 97 2,000 -180 Descending Jacksonville Center
03:07PM 30.0558 -81.8919 83° East 79 91 1,900 -60 Descending Jacksonville Center
03:08PM 30.0706 -81.8822 30° Northeast 78 90 1,900 -180 Level Jacksonville Center
03:09PM 30.0933 -81.8747 16° North 79 91 1,600 -60 Descending Jacksonville Center
03:11PM 30.1122 -81.8769 354° North 74 85 1,800 -120 Climbing Jacksonville Center
03:12PM 30.1331 -81.8767 North 67 77 1,400 -480 Descending Jacksonville Center
03:12PM 30.1478 -81.8764 North 88 101 1,000 -480 Descending Jacksonville Center
03:14PM 30.1789 -81.8761 360° North 90 104 500 -420 Descending Jacksonville Center
03:16PM 30.2167 -81.8667 79° East  Level FlightAware Approximate
03:23PM 30.2188 -81.8772 79° East  Level Estimated
03:24PM 30.2188 -81.8772 79° East  Level Estimated
03:25PM 30.2188 -81.8772 79° East  Level Estimated
03:26PM 30.2188 -81.8772 79° East  Level Estimated
03:27PM 30.2188 -81.8772 79° East  Level Estimated
03:28PM 30.2188 -81.8772 79° East  Level Estimated
03:29PM 30.2188 -81.8772 79° East  Level Estimated
03:30PM 30.2188 -81.8772 79° East  Level Estimated
03:31PM 30.2188 -81.8772 79° East  Level Estimated
03:32PM 30.2188 -81.8772 79° East  Level Estimated
03:33PM 30.2188 -81.8772 79° East  Level Estimated
03:34PM 30.2188 -81.8772 79° East  Level Estimated
03:35PM 30.2188 -81.8772 79° East  Level Estimated
03:36PM 30.2188 -81.8772 79° East  Level Estimated
03:37PM 30.2188 -81.8772 79° East  Level Estimated
03:38PM 30.2188 -81.8772 79° East  Level Estimated
03:39PM 30.2188 -81.8772 79° East  Level Estimated
03:40PM 30.2188 -81.8772 79° East  Level Estimated
03:41PM 30.2188 -81.8772 79° East  Level Estimated
03:42PM 30.2188 -81.8772 79° East  Level Estimated
03:43PM 30.2188 -81.8772 79° East  Level Estimated
03:44PM 30.2188 -81.8772 79° East  Level Estimated